createdAt,value
2023-01-15T00:02:25.780Z,100134.30
2023-01-15T00:04:54.419Z,100127.85
2023-01-15T00:07:22.870Z,100122.89
2023-01-15T00:09:51.777Z,100120.94
2023-01-15T00:12:20.222Z,100120.98
2023-01-15T00:14:49.282Z,100117.64
2023-01-15T00:17:17.626Z,100104.79
2023-01-15T00:19:47.244Z,100120.15
2023-01-15T00:22:16.057Z,100106.07
2023-01-15T00:25:03.026Z,100111.88
2023-01-15T00:27:39.300Z,100111.35
2023-01-15T00:30:12.139Z,100106.11
2023-01-15T00:32:44.555Z,100108.80
2023-01-15T00:35:21.360Z,100114.92
2023-01-15T00:37:51.075Z,100106.29
2023-01-15T00:40:20.743Z,100093.81
2023-01-15T00:42:53.964Z,100112.86
2023-01-15T00:45:24.217Z,100114.45
2023-01-15T00:47:52.845Z,100096.94
2023-01-15T00:50:22.809Z,100100.30
2023-01-15T00:52:51.091Z,100113.79
2023-01-15T00:55:19.702Z,100116.38
2023-01-15T00:57:48.312Z,100122.31
2023-01-15T01:00:17.212Z,100113.95
2023-01-15T01:02:45.786Z,100116.16
2023-01-15T01:05:14.306Z,100123.73
2023-01-15T01:07:43.707Z,100104.73
2023-01-15T01:10:15.167Z,100109.27
2023-01-15T01:12:43.477Z,100118.20
2023-01-15T01:15:11.829Z,100103.39
2023-01-15T01:17:40.926Z,100074.46
2023-01-15T01:20:10.438Z,100079.61
2023-01-15T01:22:39.733Z,100079.48
2023-01-15T01:25:09.754Z,100077.83
2023-01-15T01:27:38.384Z,100055.76
2023-01-15T01:30:07.811Z,100042.45
2023-01-15T01:32:36.214Z,100014.73
2023-01-15T01:35:05.222Z,100008.04
2023-01-15T01:37:35.797Z,99992.86
2023-01-15T01:40:05.353Z,99987.63
2023-01-15T01:42:33.772Z,99947.17
2023-01-15T01:45:07.375Z,99983.45
2023-01-15T01:47:35.861Z,99969.64
2023-01-15T01:50:09.757Z,99965.33
2023-01-15T01:52:47.386Z,99944.72
2023-01-15T01:55:18.494Z,99964.16
2023-01-15T01:57:50.695Z,99960.14
2023-01-15T02:00:20.485Z,99982.99
2023-01-15T02:02:50.621Z,99988.63
2023-01-15T02:05:31.753Z,99966.30
2023-01-15T02:08:01.218Z,99975.60
2023-01-15T02:10:29.811Z,99957.82
2023-01-15T02:13:02.038Z,99947.42
2023-01-15T02:15:40.785Z,99948.28
2023-01-15T02:18:09.310Z,99944.95
2023-01-15T02:20:41.271Z,99927.14
2023-01-15T02:23:33.780Z,99935.50
2023-01-15T02:26:21.568Z,99919.91
2023-01-15T02:28:54.400Z,99914.72
2023-01-15T02:31:32.577Z,99913.13
2023-01-15T02:34:12.169Z,99922.89
2023-01-15T02:36:44.565Z,99915.87
2023-01-15T02:39:23.035Z,99908.92
2023-01-15T02:41:55.397Z,99900.71
2023-01-15T02:44:27.384Z,99890.56
2023-01-15T02:46:59.758Z,99886.81
2023-01-15T02:49:28.832Z,99891.33
2023-01-15T02:52:15.246Z,99891.88
2023-01-15T02:54:49.060Z,99894.10
2023-01-15T02:57:21.008Z,99890.12
2023-01-15T02:59:58.084Z,99890.92
2023-01-15T03:02:43.029Z,99881.53
2023-01-15T03:05:21.275Z,99871.19
2023-01-15T03:08:02.275Z,99863.71
2023-01-15T03:10:43.893Z,99848.95
2023-01-15T03:13:20.458Z,99868.70
2023-01-15T03:16:14.205Z,99858.70
2023-01-15T03:19:06.051Z,99858.86
2023-01-15T03:21:40.735Z,99867.55
2023-01-15T03:24:12.034Z,99860.35
2023-01-15T03:26:40.814Z,99842.44
2023-01-15T03:29:11.324Z,99838.94
2023-01-15T03:31:42.141Z,99831.41
2023-01-15T03:34:11.935Z,99818.02
2023-01-15T03:36:40.935Z,99815.13
2023-01-15T03:39:09.547Z,99813.20
2023-01-15T03:41:58.691Z,99816.15
2023-01-15T03:44:39.446Z,99804.23
2023-01-15T03:47:28.402Z,99800.83
2023-01-15T03:50:16.316Z,99801.99
2023-01-15T03:52:55.581Z,99799.73
2023-01-15T03:55:46.203Z,99788.35
2023-01-15T03:58:24.294Z,99800.11
2023-01-15T04:00:56.435Z,99799.98
2023-01-15T04:03:26.871Z,99807.55
2023-01-15T04:05:59.363Z,99805.14
2023-01-15T04:08:31.471Z,99805.00
2023-01-15T04:11:01.673Z,99797.05
2023-01-15T04:13:33.704Z,99804.05
2023-01-15T04:16:03.185Z,99800.15
2023-01-15T04:18:32.257Z,99802.42
2023-01-15T04:21:00.563Z,99803.55
2023-01-15T04:23:29.935Z,99797.50
2023-01-15T04:25:58.227Z,99779.69
2023-01-15T04:28:26.537Z,99796.51
2023-01-15T04:30:57.923Z,99782.16
2023-01-15T04:33:27.105Z,99790.69
2023-01-15T04:35:55.457Z,99797.08
2023-01-15T04:38:25.229Z,99778.11
2023-01-15T04:41:12.627Z,99760.08
2023-01-15T04:43:59.588Z,99779.41
2023-01-15T04:46:27.925Z,99772.58
2023-01-15T04:48:56.289Z,99767.33
2023-01-15T04:51:25.546Z,99769.77
2023-01-15T04:53:54.054Z,99767.65
2023-01-15T04:56:22.796Z,99760.86
2023-01-15T04:58:51.556Z,99751.06
2023-01-15T05:01:20.110Z,99743.79
2023-01-15T05:03:48.776Z,99730.70
2023-01-15T05:06:18.682Z,99711.55
2023-01-15T05:08:47.083Z,99717.58
2023-01-15T05:11:15.439Z,99720.64
2023-01-15T05:13:43.824Z,99713.56
2023-01-15T05:16:20.765Z,99722.75
2023-01-15T05:18:49.054Z,99731.40
2023-01-15T05:21:23.131Z,99731.73
2023-01-15T05:23:53.708Z,99724.04
2023-01-15T05:26:23.015Z,99716.96
2023-01-15T05:28:55.009Z,99713.84
2023-01-15T05:31:24.537Z,99709.98
2023-01-15T05:33:54.403Z,99707.70
2023-01-15T05:36:28.862Z,99707.66
2023-01-15T05:39:02.442Z,99706.96
2023-01-15T05:41:49.520Z,99700.83
2023-01-15T05:44:19.978Z,99711.73
2023-01-15T05:46:49.309Z,99715.05
2023-01-15T05:49:21.798Z,99712.66
2023-01-15T05:51:51.437Z,99706.58
2023-01-15T05:54:23.044Z,99696.58
2023-01-15T05:56:51.990Z,99683.08
2023-01-15T05:59:23.635Z,99680.45
2023-01-15T06:01:53.169Z,99684.33
2023-01-15T06:04:22.323Z,99678.73
2023-01-15T06:06:52.411Z,99678.66
2023-01-15T06:09:23.371Z,99687.46
2023-01-15T06:11:53.819Z,99695.18
2023-01-15T06:14:22.213Z,99687.05
2023-01-15T06:16:51.017Z,99690.31
2023-01-15T06:19:19.643Z,99686.39
2023-01-15T06:21:49.171Z,99680.88
2023-01-15T06:24:18.161Z,99679.17
2023-01-15T06:26:46.691Z,99680.08
2023-01-15T06:29:18.978Z,99672.25
2023-01-15T06:31:49.520Z,99675.39
2023-01-15T06:34:18.097Z,99656.34
2023-01-15T06:36:46.928Z,99678.23
2023-01-15T06:39:15.510Z,99684.98
2023-01-15T06:42:02.013Z,99686.84
2023-01-15T06:44:49.015Z,99686.41
2023-01-15T06:47:23.385Z,99686.77
2023-01-15T06:49:58.055Z,99687.59
2023-01-15T06:52:28.795Z,99685.20
2023-01-15T06:54:57.062Z,99682.39
2023-01-15T06:57:25.582Z,99670.66
2023-01-15T06:59:53.906Z,99666.23
2023-01-15T07:02:22.219Z,99683.16
2023-01-15T07:04:52.241Z,99682.04
2023-01-15T07:07:21.506Z,99684.27
2023-01-15T07:09:50.685Z,99688.53
2023-01-15T07:12:19.696Z,99688.77
2023-01-15T07:14:48.315Z,99695.35
2023-01-15T07:17:16.731Z,99698.72
2023-01-15T07:19:46.260Z,99699.31
2023-01-15T07:22:14.519Z,99695.39
2023-01-15T07:24:42.878Z,99694.39
2023-01-15T07:27:11.243Z,99692.45
2023-01-15T07:29:39.318Z,99691.61
2023-01-15T07:32:07.530Z,99691.38
2023-01-15T07:34:36.162Z,99681.77
2023-01-15T07:37:04.336Z,99682.99
2023-01-15T07:39:32.467Z,99680.69
2023-01-15T07:42:18.795Z,99678.91
2023-01-15T07:45:05.582Z,99677.11
2023-01-15T07:47:52.363Z,99677.05
2023-01-15T07:50:22.970Z,99673.19
2023-01-15T07:52:53.143Z,99675.51
2023-01-15T07:55:23.010Z,99678.48
2023-01-15T07:57:52.480Z,99679.14
2023-01-15T08:00:23.205Z,99681.16
2023-01-15T08:02:52.135Z,99675.77
2023-01-15T08:05:20.861Z,99674.73
2023-01-15T08:07:50.167Z,99673.55
2023-01-15T08:10:19.796Z,99669.00
2023-01-15T08:13:08.427Z,99666.97
2023-01-15T08:15:40.079Z,99668.02
2023-01-15T08:18:08.357Z,99666.54
2023-01-15T08:20:37.751Z,99667.91
2023-01-15T08:23:06.057Z,99670.83
2023-01-15T08:25:34.262Z,99672.13
2023-01-15T08:28:03.430Z,99671.05
2023-01-15T08:30:31.748Z,99671.86
2023-01-15T08:33:03.339Z,99671.70
2023-01-15T08:35:32.137Z,99673.52
2023-01-15T08:38:07.261Z,99666.66
2023-01-15T08:40:57.124Z,99667.83
2023-01-15T08:43:29.755Z,99669.45
2023-01-15T08:46:04.025Z,99674.04
2023-01-15T08:48:35.754Z,99672.84
2023-01-15T08:51:10.210Z,99675.52
2023-01-15T08:53:39.142Z,99674.52
2023-01-15T08:56:19.069Z,99669.23
2023-01-15T08:58:48.929Z,99670.64
2023-01-15T09:01:17.412Z,99669.42
2023-01-15T09:03:45.690Z,99665.09
2023-01-15T09:06:14.184Z,99661.60
2023-01-15T09:08:42.454Z,99660.30
2023-01-15T09:11:13.091Z,99663.38
2023-01-15T09:13:44.199Z,99667.75
2023-01-15T09:16:12.947Z,99668.46
2023-01-15T09:18:41.705Z,99664.44
2023-01-15T09:21:10.342Z,99658.95
2023-01-15T09:23:38.709Z,99656.91
2023-01-15T09:26:08.162Z,99653.09
2023-01-15T09:28:36.416Z,99650.27
2023-01-15T09:31:04.929Z,99646.28
2023-01-15T09:33:33.215Z,99638.92
2023-01-15T09:36:01.545Z,99643.69
2023-01-15T09:38:29.780Z,99626.30
2023-01-15T09:41:08.711Z,99632.39
2023-01-15T09:43:52.463Z,99626.66
2023-01-15T09:46:26.109Z,99626.36
2023-01-15T09:49:22.319Z,99623.02
2023-01-15T09:52:00.867Z,99619.89
2023-01-15T09:54:44.105Z,99619.61
2023-01-15T09:57:14.262Z,99616.67
2023-01-15T09:59:49.328Z,99613.70
2023-01-15T10:02:45.369Z,99613.02
2023-01-15T10:05:20.409Z,99608.84
2023-01-15T10:07:58.093Z,99606.38
2023-01-15T10:10:34.177Z,99610.04
2023-01-15T10:13:18.476Z,99609.65
2023-01-15T10:15:48.946Z,99613.29
2023-01-15T10:18:21.101Z,99613.10
2023-01-15T10:20:59.750Z,99613.30
2023-01-15T10:23:45.066Z,99613.39
2023-01-15T10:26:54.916Z,99609.02
2023-01-15T10:29:46.650Z,99610.13
2023-01-15T10:32:36.839Z,99614.90
2023-01-15T10:35:24.567Z,99636.66
2023-01-15T10:38:10.806Z,99646.61
2023-01-15T10:40:54.040Z,99655.02
2023-01-15T10:43:51.635Z,99663.37
2023-01-15T10:46:28.413Z,99672.52
2023-01-15T10:48:58.372Z,99680.88
2023-01-15T10:51:48.660Z,99681.10
2023-01-15T10:54:38.451Z,99682.66
2023-01-15T10:57:13.937Z,99683.38
2023-01-15T10:59:59.494Z,99683.67
2023-01-15T11:02:50.310Z,99684.63
2023-01-15T11:05:21.412Z,99688.60
2023-01-15T11:10:41.804Z,99687.22
2023-01-15T11:13:40.356Z,99687.27
2023-01-15T11:16:36.090Z,99684.77
2023-01-15T11:19:25.673Z,99683.43
2023-01-15T11:21:54.788Z,99677.17
2023-01-15T11:24:23.183Z,99657.16
2023-01-15T11:26:55.007Z,99663.41
2023-01-15T11:29:34.083Z,99661.13
2023-01-15T11:32:02.906Z,99666.52
2023-01-15T11:34:32.922Z,99665.86
2023-01-15T11:37:06.013Z,99671.59
2023-01-15T11:39:34.393Z,99673.58
2023-01-15T11:42:34.411Z,99682.64
2023-01-15T11:45:21.823Z,99669.92
2023-01-15T11:48:10.901Z,99690.05
2023-01-15T11:51:20.324Z,99702.61
2023-01-15T11:53:54.414Z,99709.26
2023-01-15T11:56:26.758Z,99710.93
2023-01-15T11:58:57.783Z,99719.77
2023-01-15T12:01:32.660Z,99724.84
2023-01-15T12:04:06.920Z,99723.83
2023-01-15T12:06:39.934Z,99719.05
2023-01-15T12:09:36.020Z,99714.02
2023-01-15T12:12:22.276Z,99716.13
2023-01-15T12:14:58.401Z,99712.39
2023-01-15T12:17:32.718Z,99687.84
2023-01-15T12:20:19.897Z,99703.65
2023-01-15T12:23:07.275Z,99706.85
2023-01-15T12:25:49.468Z,99708.39
2023-01-15T12:28:40.856Z,99707.02
2023-01-15T12:31:17.453Z,99712.63
2023-01-15T12:34:06.184Z,99722.14
2023-01-15T12:36:42.745Z,99733.41
2023-01-15T12:39:13.776Z,99725.19
2023-01-15T12:42:04.785Z,99724.73
2023-01-15T12:45:05.835Z,99727.58
2023-01-15T12:47:37.264Z,99737.50
2023-01-15T12:50:28.791Z,99741.14
2023-01-15T12:53:32.415Z,99733.27
2023-01-15T12:56:31.292Z,99746.73
2023-01-15T12:59:27.652Z,99742.00
2023-01-15T13:02:20.468Z,99734.30
2023-01-15T13:04:59.181Z,99723.44
2023-01-15T13:07:37.472Z,99723.85
2023-01-15T13:10:23.071Z,99723.68
2023-01-15T13:12:54.359Z,99710.54
2023-01-15T13:15:31.393Z,99701.42
2023-01-15T13:18:09.985Z,99669.14
2023-01-15T13:20:52.720Z,99699.54
2023-01-15T13:23:30.484Z,99703.60
2023-01-15T13:26:26.455Z,99718.63
2023-01-15T13:29:13.178Z,99721.52
2023-01-15T13:31:57.447Z,99732.61
2023-01-15T13:34:50.595Z,99737.35
2023-01-15T13:37:25.645Z,99743.05
2023-01-15T13:40:23.252Z,99755.98
2023-01-15T13:42:53.671Z,99760.59
2023-01-15T13:45:27.949Z,99761.04
2023-01-15T13:48:02.947Z,99769.14
2023-01-15T13:50:35.500Z,99755.14
2023-01-15T13:53:37.323Z,99766.46
2023-01-15T13:56:09.938Z,99756.02
2023-01-15T13:58:41.816Z,99759.79
2023-01-15T14:01:20.641Z,99758.80
2023-01-15T14:04:07.781Z,99751.65
2023-01-15T14:06:42.030Z,99764.68
2023-01-15T14:09:12.591Z,99764.11
2023-01-15T14:12:12.004Z,99773.10
2023-01-15T14:15:15.397Z,99758.60
2023-01-15T14:17:57.784Z,99773.77
2023-01-15T14:20:35.827Z,99784.10
2023-01-15T14:23:15.795Z,99797.86
2023-01-15T14:26:02.168Z,99799.27
2023-01-15T14:28:51.996Z,99795.98
2023-01-15T14:31:39.066Z,99796.89
2023-01-15T14:34:16.374Z,99792.17
2023-01-15T14:37:00.883Z,99792.98
2023-01-15T14:39:49.474Z,99804.00
2023-01-15T14:42:40.420Z,99810.16
2023-01-15T14:45:30.699Z,99810.19
2023-01-15T14:48:35.457Z,99807.95
2023-01-15T14:51:18.832Z,99817.15
2023-01-15T14:53:59.892Z,99816.42
2023-01-15T14:56:36.332Z,99815.45
2023-01-15T14:59:25.992Z,99809.12
2023-01-15T15:02:13.643Z,99811.83
2023-01-15T15:04:56.513Z,99787.86
2023-01-15T15:07:29.387Z,99817.58
2023-01-15T15:10:17.829Z,99817.41
2023-01-15T15:13:02.549Z,99822.11
2023-01-15T15:16:00.220Z,99823.81
2023-01-15T15:18:42.727Z,99806.45
2023-01-15T15:21:26.470Z,99818.91
2023-01-15T15:24:18.759Z,99809.80
2023-01-15T15:26:47.092Z,99806.02
2023-01-15T15:29:18.994Z,99809.22
2023-01-15T15:31:56.183Z,99801.29
2023-01-15T15:34:40.953Z,99794.36
2023-01-15T15:37:18.763Z,99801.81
2023-01-15T15:40:02.291Z,99826.18
2023-01-15T15:42:51.298Z,99826.42
2023-01-15T15:45:42.396Z,99823.55
2023-01-15T15:48:40.594Z,99811.57
2023-01-15T15:51:33.496Z,99816.11
2023-01-15T15:54:26.540Z,99821.48
2023-01-15T15:57:09.800Z,99822.78
2023-01-15T15:59:46.400Z,99827.03
2023-01-15T16:02:25.544Z,99819.96
2023-01-15T16:04:56.602Z,99785.14
2023-01-15T16:07:27.402Z,99816.59
2023-01-15T16:10:02.457Z,99809.63
2023-01-15T16:12:44.811Z,99797.44
2023-01-15T16:15:20.557Z,99790.51
2023-01-15T16:17:50.799Z,99770.64
2023-01-15T16:20:21.321Z,99765.96
2023-01-15T16:23:04.506Z,99788.33
2023-01-15T16:25:41.101Z,99768.23
2023-01-15T16:28:26.864Z,99782.08
2023-01-15T16:31:02.865Z,99783.98
2023-01-15T16:33:36.529Z,99788.10
2023-01-15T16:36:06.575Z,99785.64
2023-01-15T16:38:41.362Z,99783.20
2023-01-15T16:41:21.158Z,99787.83
2023-01-15T16:43:56.804Z,99789.65
2023-01-15T16:46:29.285Z,99791.31
2023-01-15T16:49:23.953Z,99799.13
2023-01-15T16:51:54.761Z,99810.95
2023-01-15T16:54:32.169Z,99816.56
2023-01-15T16:57:23.861Z,99828.14
2023-01-15T16:59:59.487Z,99837.85
2023-01-15T17:02:35.023Z,99839.06
2023-01-15T17:05:21.357Z,99837.48
2023-01-15T17:07:51.798Z,99832.13
2023-01-15T17:10:23.619Z,99829.41
2023-01-15T17:13:01.239Z,99835.52
2023-01-15T17:15:36.876Z,99832.80
2023-01-15T17:18:21.496Z,99832.39
2023-01-15T17:20:50.478Z,99828.95
2023-01-15T17:23:24.741Z,99844.70
2023-01-15T17:25:54.178Z,99853.70
2023-01-15T17:28:24.947Z,99849.23
2023-01-15T17:30:59.090Z,99862.10
2023-01-15T17:33:30.207Z,99859.55
2023-01-15T17:36:02.027Z,99845.66
2023-01-15T17:38:30.361Z,99858.27
2023-01-15T17:40:59.359Z,99871.00
2023-01-15T17:43:27.851Z,99874.21
2023-01-15T17:45:56.235Z,99883.02
2023-01-15T17:48:24.556Z,99889.74
2023-01-15T17:50:54.673Z,99890.61
2023-01-15T17:53:23.311Z,99899.69
2023-01-15T17:56:10.988Z,99898.19
2023-01-15T17:58:57.799Z,99900.09
2023-01-15T18:01:46.961Z,99912.02
2023-01-15T18:04:43.193Z,99917.14
2023-01-15T18:07:13.457Z,99930.57
2023-01-15T18:09:42.686Z,99931.09
2023-01-15T18:12:11.303Z,99940.02
2023-01-15T18:14:39.754Z,99936.71
2023-01-15T18:17:08.161Z,99933.60
2023-01-15T18:19:36.535Z,99938.34
2023-01-15T18:22:05.123Z,99927.16
2023-01-15T18:24:33.384Z,99928.95
2023-01-15T18:27:02.089Z,99929.91
2023-01-15T18:29:30.956Z,99907.66
2023-01-15T18:31:59.336Z,99944.41
2023-01-15T18:34:28.729Z,99938.77
2023-01-15T18:36:57.152Z,99925.52
2023-01-15T18:39:25.498Z,99938.58
2023-01-15T18:41:53.749Z,99938.09
2023-01-15T18:44:43.581Z,99935.56
2023-01-15T18:47:15.225Z,99928.66
2023-01-15T18:49:45.816Z,99930.56
2023-01-15T18:52:38.441Z,99926.28
2023-01-15T18:55:07.667Z,99915.31
2023-01-15T18:57:36.165Z,99913.73
2023-01-15T19:00:05.148Z,99910.52
2023-01-15T19:02:33.855Z,99924.31
2023-01-15T19:05:02.155Z,99929.85
2023-01-15T19:07:30.434Z,99926.28
2023-01-15T19:09:59.464Z,99925.30
2023-01-15T19:12:29.535Z,99922.88
2023-01-15T19:15:16.522Z,99918.02
2023-01-15T19:18:03.805Z,99915.64
2023-01-15T19:20:33.026Z,99888.41
2023-01-15T19:23:05.205Z,99900.87
2023-01-15T19:25:39.428Z,99887.36
2023-01-15T19:28:08.579Z,99905.12
2023-01-15T19:30:38.920Z,99901.35
2023-01-15T19:33:09.455Z,99898.44
2023-01-15T19:35:39.227Z,99895.56
2023-01-15T19:38:08.695Z,99884.60
2023-01-15T19:40:40.760Z,99889.65
2023-01-15T19:43:28.664Z,99896.77
2023-01-15T19:46:16.058Z,99901.17
2023-01-15T19:49:11.254Z,99903.48
2023-01-15T19:51:58.207Z,99886.58
2023-01-15T19:54:45.240Z,99908.30
2023-01-15T19:57:13.548Z,99911.33
2023-01-15T19:59:47.718Z,99903.08
2023-01-15T20:02:16.862Z,99902.66
2023-01-15T20:04:45.835Z,99899.99
2023-01-15T20:07:14.111Z,99898.90
2023-01-15T20:09:43.889Z,99901.53
2023-01-15T20:12:31.476Z,99905.54
2023-01-15T20:15:00.146Z,99897.19
2023-01-15T20:17:29.961Z,99920.24
2023-01-15T20:19:59.007Z,99908.32
2023-01-15T20:22:31.659Z,99901.58
2023-01-15T20:25:00.056Z,99913.73
2023-01-15T20:27:31.724Z,99918.07
2023-01-15T20:30:02.481Z,99920.94
2023-01-15T20:32:32.072Z,99916.31
2023-01-15T20:35:00.664Z,99924.73
2023-01-15T20:37:30.127Z,99924.89
2023-01-15T20:39:58.431Z,99920.32
2023-01-15T20:42:48.172Z,99929.30
2023-01-15T20:45:17.347Z,99926.49
2023-01-15T20:48:04.930Z,99927.95
2023-01-15T20:50:36.142Z,99920.02
2023-01-15T20:53:05.939Z,99916.95
2023-01-15T20:55:54.479Z,99912.94
2023-01-15T20:58:25.201Z,99900.85
2023-01-15T21:00:56.548Z,99905.27
2023-01-15T21:03:25.390Z,99905.70
2023-01-15T21:05:57.148Z,99914.80
2023-01-15T21:08:25.337Z,99919.04
2023-01-15T21:10:54.916Z,99919.48
2023-01-15T21:13:23.787Z,99915.23
2023-01-15T21:15:57.570Z,99919.62
2023-01-15T21:18:27.972Z,99918.98
2023-01-15T21:20:56.202Z,99919.70
2023-01-15T21:23:30.631Z,99928.64
2023-01-15T21:26:03.652Z,99910.81
2023-01-15T21:28:34.853Z,99926.60
2023-01-15T21:31:07.633Z,99937.55
2023-01-15T21:33:36.461Z,99929.34
2023-01-15T21:36:10.565Z,99923.73
2023-01-15T21:38:39.987Z,99924.95
2023-01-15T21:41:14.373Z,99930.33
2023-01-15T21:44:02.013Z,99906.34
2023-01-15T21:46:30.784Z,99913.77
2023-01-15T21:48:59.396Z,99915.75
2023-01-15T21:51:28.274Z,99919.88
2023-01-15T21:54:00.090Z,99900.95
2023-01-15T21:56:29.027Z,99916.02
2023-01-15T21:58:57.480Z,99911.40
2023-01-15T22:01:26.226Z,99908.16
2023-01-15T22:03:54.708Z,99907.31
2023-01-15T22:06:23.123Z,99906.65
2023-01-15T22:08:54.363Z,99900.10
2023-01-15T22:11:23.012Z,99899.45
2023-01-15T22:14:05.338Z,99898.80
2023-01-15T22:16:33.740Z,99890.30
2023-01-15T22:19:02.143Z,99891.13
2023-01-15T22:21:30.368Z,99891.32
2023-01-15T22:23:58.634Z,99890.58
2023-01-15T22:26:30.336Z,99888.71
2023-01-15T22:28:59.337Z,99896.39
2023-01-15T22:31:28.612Z,99890.08
2023-01-15T22:33:59.113Z,99895.16
2023-01-15T22:36:27.600Z,99893.17
2023-01-15T22:38:56.672Z,99892.67
2023-01-15T22:41:43.427Z,99892.79
2023-01-15T22:44:13.963Z,99889.67
2023-01-15T22:46:42.251Z,99884.15
2023-01-15T22:49:10.630Z,99886.04
2023-01-15T22:51:39.206Z,99877.10
2023-01-15T22:54:07.542Z,99875.19
2023-01-15T22:56:36.202Z,99878.83
2023-01-15T22:59:06.376Z,99882.02
2023-01-15T23:01:35.220Z,99876.23
2023-01-15T23:04:05.301Z,99876.66
2023-01-15T23:06:33.653Z,99860.17
2023-01-15T23:09:04.932Z,99867.36
2023-01-15T23:11:34.298Z,99879.23
2023-01-15T23:14:03.159Z,99873.08
2023-01-15T23:16:31.340Z,99871.45
2023-01-15T23:18:59.475Z,99851.26
2023-01-15T23:21:28.642Z,99856.12
2023-01-15T23:23:59.046Z,99856.05
2023-01-15T23:26:30.772Z,99862.77
2023-01-15T23:28:59.782Z,99866.12
2023-01-15T23:31:28.758Z,99866.31
2023-01-15T23:33:56.971Z,99866.98
2023-01-15T23:36:25.382Z,99870.02
2023-01-15T23:38:53.610Z,99872.10
2023-01-15T23:41:43.512Z,99864.73
2023-01-15T23:44:37.581Z,99864.39
2023-01-15T23:47:07.835Z,99861.58
2023-01-15T23:49:36.777Z,99867.30
2023-01-15T23:52:05.086Z,99872.37
2023-01-15T23:54:33.456Z,99872.28
2023-01-15T23:57:02.329Z,99878.52
2023-01-15T23:59:30.751Z,99880.20
